Flight Track Log - Related Links

Times and Time Zones

All times are in EDT time to prevent confusion due to time zone crossing. See the SWA1729 flight status page for this flight to view local times or setup timezone preferences in your user account.

Time Position Orientation Groundspeed Altitude Reporting Facility
EDT Latitude Longitude Course Direction KTS MPH feet Rate Location/Type
Tue 08:12:10 PM 36.1000 -86.6833 256° West 153 176 1,500  Level Nashville TRACON
Tue 08:13:22 PM 36.0833 -86.7667 256° West 248 285 4,100 2,760 Climbing Nashville TRACON
Tue 08:14:40 PM 36.1000 -86.8833 280° West 260 299 8,400 2,976 Climbing Nashville TRACON
Tue 08:15:29 PM 36.0911 -86.9589 262° West 256 295 10,400 2,202 Climbing Memphis Center
Tue 08:16:29 PM 36.0961 -87.0692 273° West 285 328 12,400 2,500 Climbing Memphis Center
Tue 08:17:29 PM 36.0972 -87.1844 271° West 326 375 15,400 2,500 Climbing Memphis Center
Tue 08:18:29 PM 36.0853 -87.2903 262° West 348 400 17,400 1,950 Climbing Memphis Center
Tue 08:19:29 PM 36.0589 -87.4144 255° West 360 414 19,300 2,000 Climbing Memphis Center
Tue 08:20:29 PM 36.0347 -87.5411 257° West 371 427 21,400 1,900 Climbing Memphis Center
Tue 08:21:29 PM 36.0106 -87.6678 257° West 376 433 23,100 1,700 Climbing Memphis Center
Tue 08:22:29 PM 35.9800 -87.8047 255° West 398 458 24,800 1,650 Climbing Memphis Center
Tue 08:23:29 PM 35.9431 -87.9317 250° West 398 458 26,400 1,750 Climbing Memphis Center
Tue 08:24:29 PM 35.8850 -88.0689 242° Southwest 409 471 28,300 1,900 Climbing Memphis Center
Tue 08:25:29 PM 35.8369 -88.1703 240° Southwest 404 465 30,200 1,450 Climbing Memphis Center
Tue 08:26:29 PM 35.7806 -88.2919 240° Southwest 397 457 31,200 1,250 Climbing Memphis Center
Tue 08:27:29 PM 35.7283 -88.4136 242° Southwest 403 464 32,700 1,550 Climbing Memphis Center
Tue 08:28:29 PM 35.6758 -88.5297 241° Southwest 397 457 34,300 1,500 Climbing Memphis Center
Tue 08:29:29 PM 35.6253 -88.6406 241° Southwest 391 450 35,700 850 Climbing Memphis Center
Tue 08:30:29 PM 35.5728 -88.7542 240° Southwest 391 450 36,000 150 Climbing Memphis Center
Tue 08:31:29 PM 35.5219 -88.8750 243° Southwest 379 436 36,000  Level Memphis Center
Tue 08:32:29 PM 35.4711 -88.9881 241° Southwest 379 436 36,000  Level Memphis Center
Tue 08:33:29 PM 35.4264 -89.0856 241° Southwest 374 430 36,000  Level Memphis Center
Tue 08:34:29 PM 35.3772 -89.1958 241° Southwest 374 430 36,000  Level Memphis Center
Tue 08:35:29 PM 35.3261 -89.3086 241° Southwest 374 430 36,000  Level Memphis Center
Tue 08:36:29 PM 35.2769 -89.4161 241° Southwest 374 430 36,000  Level Memphis Center
Tue 08:37:29 PM 35.2278 -89.5283 242° Southwest 374 430 36,000  Level Memphis Center
Tue 08:38:29 PM 35.1806 -89.6356 242° Southwest 374 430 36,000  Level Memphis Center
Tue 08:39:29 PM 35.1289 -89.7453 240° Southwest 369 425 36,000  Level Memphis Center
Tue 08:40:29 PM 35.0794 -89.8547 241° Southwest 369 425 36,000  Level Memphis Center
Tue 08:41:29 PM 35.0297 -89.9642 241° Southwest 369 425 36,000  Level Memphis Center
Tue 08:42:29 PM 34.9528 -90.0481 222° Southwest 374 430 36,000  Level Memphis Center
Tue 08:43:29 PM 34.8694 -90.1242 217° Southwest 374 430 36,000  Level Memphis Center
Tue 08:44:29 PM 34.7861 -90.2003 217° Southwest 379 436 36,000  Level Memphis Center
Tue 08:45:29 PM 34.7028 -90.2764 217° Southwest 379 436 36,000  Level Memphis Center
Tue 08:46:29 PM 34.6150 -90.3547 216° Southwest 371 427 36,000  Level Memphis Center
Tue 08:47:29 PM 34.5317 -90.4303 217° Southwest 371 427 36,000  Level Memphis Center
Tue 08:48:29 PM 34.4522 -90.5033 217° Southwest 366 421 36,000  Level Memphis Center
Tue 08:49:29 PM 34.3708 -90.5736 215° Southwest 366 421 36,000  Level Memphis Center
Tue 08:50:29 PM 34.2892 -90.6486 217° Southwest 366 421 36,000  Level Memphis Center
Tue 08:51:29 PM 34.2078 -90.7214 216° Southwest 366 421 36,000  Level Memphis Center
Tue 08:52:29 PM 34.1261 -90.7989 218° Southwest 366 421 36,000  Level Memphis Center
Tue 08:53:29 PM 34.0464 -90.8686 216° Southwest 366 421 36,000  Level Memphis Center
Tue 08:54:29 PM 33.9647 -90.9433 217° Southwest 366 421 36,000  Level Memphis Center
Tue 08:55:29 PM 33.8831 -91.0128 215° Southwest 366 421 36,000  Level Memphis Center
Tue 08:56:29 PM 33.8053 -91.0872 219° Southwest 361 415 36,000  Level Memphis Center
Tue 08:57:29 PM 33.7256 -91.1564 216° Southwest 361 415 36,000  Level Memphis Center
Tue 08:58:29 PM 33.6458 -91.2256 216° Southwest 361 415 36,000  Level Memphis Center
Tue 08:59:29 PM 33.5661 -91.2969 217° Southwest 361 415 36,000  Level Memphis Center
Tue 09:00:29 PM 33.4861 -91.3686 217° Southwest 361 415 36,000  Level Memphis Center
Tue 09:02:27 PM 33.3394 -91.5036 218° Southwest 341 392 36,000  Level Fort Worth Center
Tue 09:03:27 PM 33.2531 -91.5764 215° Southwest 354 407 36,000  Level Fort Worth Center
Tue 09:04:27 PM 33.1706 -91.6464 215° Southwest 360 414 36,000  Level Fort Worth Center
Tue 09:05:27 PM 33.0950 -91.7231 220° Southwest 373 429 36,000  Level Fort Worth Center
Tue 09:06:27 PM 33.0256 -91.8069 225° Southwest 373 429 36,000  Level Fort Worth Center
Tue 09:07:27 PM 32.9481 -91.8908 222° Southwest 366 421 36,000  Level Fort Worth Center
Tue 09:08:27 PM 32.8764 -91.9719 224° Southwest 366 421 36,000  Level Fort Worth Center
Tue 09:09:27 PM 32.8047 -92.0531 224° Southwest 366 421 36,000  Level Fort Worth Center
Tue 09:10:27 PM 32.7267 -92.1342 221° Southwest 361 415 36,000  Level Fort Worth Center
Tue 09:11:27 PM 32.6711 -92.2017 226° Southwest 366 421 36,000  Level Fort Worth Center
Tue 09:12:27 PM 32.5833 -92.2978 223° Southwest 376 433 36,000  Level Fort Worth Center
Tue 09:14:27 PM 32.4303 -92.4628 222° Southwest 369 425 36,000  Level Houston Center
Tue 09:15:28 PM 32.3547 -92.5442 222° Southwest 368 423 36,000  Level Houston Center
Tue 09:16:30 PM 32.2806 -92.6264 223° Southwest 367 422 36,000  Level Houston Center
Tue 09:17:31 PM 32.2058 -92.7064 222° Southwest 365 420 36,000  Level Houston Center
Tue 09:18:32 PM 32.1311 -92.7878 223° Southwest 366 421 36,000  Level Houston Center
Tue 09:19:34 PM 32.0414 -92.8853 223° Southwest 367 422 36,000  Level Houston Center
Tue 09:20:35 PM 31.9664 -92.9653 222° Southwest 366 421 36,000  Level Houston Center
Tue 09:21:36 PM 31.8922 -93.0467 223° Southwest 365 420 36,000  Level Houston Center
Tue 09:22:38 PM 31.8158 -93.1286 222° Southwest 369 425 36,000  Level Houston Center
Tue 09:23:39 PM 31.7414 -93.2092 223° Southwest 369 425 36,000  Level Houston Center
Tue 09:24:40 PM 31.6661 -93.2881 222° Southwest 366 421 36,000  Level Houston Center
Tue 09:25:42 PM 31.5917 -93.3678 222° Southwest 363 418 36,000  Level Houston Center
Tue 09:26:43 PM 31.5156 -93.4478 222° Southwest 367 422 36,000  Level Houston Center
Tue 09:27:44 PM 31.4256 -93.5433 222° Southwest 366 421 36,000  Level Houston Center
Tue 09:28:45 PM 31.3472 -93.6261 222° Southwest 367 422 36,000  Level Houston Center
Tue 09:29:47 PM 31.2706 -93.7061 222° Southwest 367 422 36,000  Level Houston Center
Tue 09:30:48 PM 31.1944 -93.7858 222° Southwest 367 422 36,000  Level Houston Center
Tue 09:31:49 PM 31.1172 -93.8669 222° Southwest 370 426 36,000  Level Houston Center
Tue 09:32:50 PM 31.0406 -93.9467 222° Southwest 368 423 36,000  Level Houston Center
Tue 09:33:51 PM 30.9625 -94.0250 221° Southwest 368 423 36,000 -776 Level Houston Center
Tue 09:34:15 PM 30.9306 -94.0581 222° Southwest 370 426 34,900 -3,097 Descending Houston Center
Tue 09:34:53 PM 30.8825 -94.1028 219° Southwest 370 426 32,800 -3,541 Descending Houston Center
Tue 09:35:16 PM 30.8464 -94.1400 222° Southwest 373 429 31,300 -3,344 Descending Houston Center
Tue 09:35:54 PM 30.8008 -94.1831 219° Southwest 378 435 29,400 -3,273 Descending Houston Center
Tue 09:36:11 PM 30.7736 -94.2108 221° Southwest 383 441 28,300 -3,246 Descending Houston Center
Tue 09:36:55 PM 30.7178 -94.2636 219° Southwest 384 442 26,100 -2,743 Descending Houston Center
Tue 09:37:56 PM 30.6333 -94.3447 220° Southwest 390 449 23,500 -2,164 Descending Houston Center
Tue 09:38:57 PM 30.5469 -94.4283 220° Southwest 401 461 21,700 -1,948 Descending Houston Center
Tue 09:39:13 PM 30.5147 -94.4611 221° Southwest 417 480 21,000 -1,935 Descending Houston Center
Tue 09:39:59 PM 30.4583 -94.5139 219° Southwest 411 473 19,700 -2,066 Descending Houston Center
Tue 09:40:14 PM 30.4225 -94.5508 222° Southwest 400 460 18,900 -1,543 Descending Houston Center
Tue 09:41:09 PM 30.3492 -94.6183 218° Southwest 367 422 17,900 -1,241 Descending Houston Center
Tue 09:42:10 PM 30.2686 -94.6967 220° Southwest 371 427 16,500 -1,983 Descending Houston Center
Tue 09:43:10 PM 30.1897 -94.7744 220° Southwest 365 420 13,900 -2,442 Descending Houston Center
Tue 09:44:03 PM 30.1417 -94.8414 230° Southwest 356 410 11,900 -2,087 Descending Houston Center
Tue 09:45:05 PM 30.0781 -94.9258 229° Southwest 351 404 9,900 -919 Descending Houston Center
Tue 09:46:07 PM 30.0147 -95.0089 229° Southwest 297 342 10,000  Climbing Houston Center
Tue 09:47:07 PM 29.9681 -95.0706 229° Southwest 302 348 9,900 -942 Descending Houston Center
Tue 09:48:08 PM 29.9181 -95.1372 229° Southwest 281 323 8,100 -1,820 Descending Houston Center
Tue 09:49:09 PM 29.8692 -95.2269 238° Southwest 278 320 6,200 -1,672 Descending Houston Center
Tue 09:50:10 PM 29.8472 -95.3092 253° West 268 308 4,700 -1,171 Descending Houston Center
Tue 09:51:12 PM 29.8300 -95.3908 256° West 269 310 3,800 -759 Descending Houston Center
Tue 09:51:29 PM 29.8206 -95.4086 239° Southwest 231 266 3,700 -500 Descending Houston Center
Tue 09:52:12 PM 29.7942 -95.4408 227° Southwest 186 214 3,300 -750 Descending Houston Center
Tue 09:53:13 PM 29.7558 -95.4117 147° Southeast 149 171 2,400 -634 Descending Houston Center
Tue 09:54:15 PM 29.7283 -95.3783 134° Southeast 168 193 2,000 -488 Descending Houston Center
Tue 09:55:16 PM 29.6986 -95.3425 134° Southeast 162 186 1,400 -571 Descending Houston Center
Tue 09:56:21 PM 29.6756 -95.3131 132° Southeast 96 110 800 -537 Descending Houston Center
Tue 09:57:19 PM 29.6575 -95.2942 138° Southeast 113 130 300 -517 Descending Houston Center
Tue 09:59:00 PM 29.6454 -95.2789 191° South  Level Estimated

Login

Don't have an account? Register now (free) for customized features, flight alerts, and more!